sensor_id;sensor_type;location;lat;lon;timestamp;temperature;humidity
76211;DHT22;65003;49.518;11.280;2023-06-22T00:01:21;19.40;96.90
76211;DHT22;65003;49.518;11.280;2023-06-22T00:03:48;19.20;97.30
76211;DHT22;65003;49.518;11.280;2023-06-22T00:06:15;19.10;97.80
76211;DHT22;65003;49.518;11.280;2023-06-22T00:08:42;19.00;98.10
76211;DHT22;65003;49.518;11.280;2023-06-22T00:11:08;18.80;98.40
76211;DHT22;65003;49.518;11.280;2023-06-22T00:13:35;18.80;99.10
76211;DHT22;65003;49.518;11.280;2023-06-22T00:16:02;18.70;98.90
76211;DHT22;65003;49.518;11.280;2023-06-22T00:18:29;18.70;99.00
76211;DHT22;65003;49.518;11.280;2023-06-22T00:20:55;18.60;99.20
76211;DHT22;65003;49.518;11.280;2023-06-22T00:23:23;18.70;98.90
76211;DHT22;65003;49.518;11.280;2023-06-22T00:25:49;18.70;99.00
76211;DHT22;65003;49.518;11.280;2023-06-22T00:28:16;18.80;98.70
76211;DHT22;65003;49.518;11.280;2023-06-22T00:30:42;18.80;98.60
76211;DHT22;65003;49.518;11.280;2023-06-22T00:33:09;18.90;98.30
76211;DHT22;65003;49.518;11.280;2023-06-22T00:35:36;19.10;97.70
76211;DHT22;65003;49.518;11.280;2023-06-22T00:38:02;19.30;96.90
76211;DHT22;65003;49.518;11.280;2023-06-22T00:40:30;19.10;97.20
76211;DHT22;65003;49.518;11.280;2023-06-22T00:42:56;18.90;97.70
76211;DHT22;65003;49.518;11.280;2023-06-22T00:45:23;18.80;98.30
76211;DHT22;65003;49.518;11.280;2023-06-22T00:47:52;18.90;98.00
76211;DHT22;65003;49.518;11.280;2023-06-22T00:50:20;19.00;97.50
76211;DHT22;65003;49.518;11.280;2023-06-22T00:52:45;19.20;96.80
76211;DHT22;65003;49.518;11.280;2023-06-22T00:55:12;19.30;96.30
76211;DHT22;65003;49.518;11.280;2023-06-22T00:57:38;19.30;95.90
76211;DHT22;65003;49.518;11.280;2023-06-22T01:00:06;19.40;95.70
76211;DHT22;65003;49.518;11.280;2023-06-22T01:02:33;19.50;95.40
76211;DHT22;65003;49.518;11.280;2023-06-22T01:04:59;19.50;95.20
76211;DHT22;65003;49.518;11.280;2023-06-22T01:07:34;19.40;95.50
76211;DHT22;65003;49.518;11.280;2023-06-22T01:10:07;19.50;95.40
76211;DHT22;65003;49.518;11.280;2023-06-22T01:12:32;19.50;95.40
76211;DHT22;65003;49.518;11.280;2023-06-22T01:15:02;19.60;95.30
76211;DHT22;65003;49.518;11.280;2023-06-22T01:17:24;19.60;95.20
76211;DHT22;65003;49.518;11.280;2023-06-22T01:19:52;19.70;94.90
76211;DHT22;65003;49.518;11.280;2023-06-22T01:22:19;19.70;94.70
76211;DHT22;65003;49.518;11.280;2023-06-22T01:28:20;19.70;94.80
76211;DHT22;65003;49.518;11.280;2023-06-22T01:30:27;19.30;95.80
76211;DHT22;65003;49.518;11.280;2023-06-22T01:32:53;19.00;96.70
76211;DHT22;65003;49.518;11.280;2023-06-22T01:35:20;18.80;97.50
76211;DHT22;65003;49.518;11.280;2023-06-22T01:37:46;18.70;97.90
76211;DHT22;65003;49.518;11.280;2023-06-22T01:40:13;18.50;98.30
76211;DHT22;65003;49.518;11.280;2023-06-22T01:42:40;18.50;98.60
76211;DHT22;65003;49.518;11.280;2023-06-22T01:45:07;18.30;98.90
76211;DHT22;65003;49.518;11.280;2023-06-22T01:47:33;18.20;99.50
76211;DHT22;65003;49.518;11.280;2023-06-22T01:50:00;18.10;99.90
76211;DHT22;65003;49.518;11.280;2023-06-22T01:52:27;18.10;99.90
76211;DHT22;65003;49.518;11.280;2023-06-22T01:54:53;18.10;99.90
76211;DHT22;65003;49.518;11.280;2023-06-22T01:57:20;18.10;99.90
76211;DHT22;65003;49.518;11.280;2023-06-22T02:00:01;18.00;99.90
76211;DHT22;65003;49.518;11.280;2023-06-22T02:02:15;18.00;99.90
76211;DHT22;65003;49.518;11.280;2023-06-22T02:04:44;18.00;99.90
76211;DHT22;65003;49.518;11.280;2023-06-22T02:07:17;18.00;99.90
76211;DHT22;65003;49.518;11.280;2023-06-22T02:09:36;18.00;99.90
76211;DHT22;65003;49.518;11.280;2023-06-22T02:12:03;18.00;99.90
76211;DHT22;65003;49.518;11.280;2023-06-22T02:14:30;18.00;99.90
76211;DHT22;65003;49.518;11.280;2023-06-22T02:16:56;18.00;99.90
76211;DHT22;65003;49.518;11.280;2023-06-22T02:19:23;17.90;99.90
76211;DHT22;65003;49.518;11.280;2023-06-22T02:21:49;17.90;99.90
76211;DHT22;65003;49.518;11.280;2023-06-22T02:24:16;18.00;99.90
76211;DHT22;65003;49.518;11.280;2023-06-22T02:26:43;18.00;99.90
76211;DHT22;65003;49.518;11.280;2023-06-22T02:29:09;18.10;99.90
76211;DHT22;65003;49.518;11.280;2023-06-22T02:31:36;18.20;99.90
76211;DHT22;65003;49.518;11.280;2023-06-22T02:34:02;18.40;99.90
76211;DHT22;65003;49.518;11.280;2023-06-22T02:36:29;18.50;99.70
76211;DHT22;65003;49.518;11.280;2023-06-22T02:38:57;18.40;99.80
76211;DHT22;65003;49.518;11.280;2023-06-22T02:41:22;18.50;99.70
76211;DHT22;65003;49.518;11.280;2023-06-22T02:43:49;18.60;99.20
76211;DHT22;65003;49.518;11.280;2023-06-22T02:46:16;18.60;99.10
76211;DHT22;65003;49.518;11.280;2023-06-22T02:48:42;18.50;99.30
76211;DHT22;65003;49.518;11.280;2023-06-22T02:51:09;18.50;99.80
76211;DHT22;65003;49.518;11.280;2023-06-22T02:53:35;18.60;99.50
76211;DHT22;65003;49.518;11.280;2023-06-22T02:56:02;18.70;99.10
76211;DHT22;65003;49.518;11.280;2023-06-22T02:58:29;18.80;98.60
76211;DHT22;65003;49.518;11.280;2023-06-22T03:00:56;18.90;98.10
76211;DHT22;65003;49.518;11.280;2023-06-22T03:03:22;18.80;98.70
76211;DHT22;65003;49.518;11.280;2023-06-22T03:05:49;18.70;99.20
76211;DHT22;65003;49.518;11.280;2023-06-22T03:08:16;18.60;99.20
76211;DHT22;65003;49.518;11.280;2023-06-22T03:10:43;18.50;98.80
76211;DHT22;65003;49.518;11.280;2023-06-22T03:13:09;18.40;99.00
76211;DHT22;65003;49.518;11.280;2023-06-22T03:15:36;18.30;99.50
76211;DHT22;65003;49.518;11.280;2023-06-22T03:18:02;18.30;99.90
76211;DHT22;65003;49.518;11.280;2023-06-22T03:20:29;18.30;99.90
76211;DHT22;65003;49.518;11.280;2023-06-22T03:22:56;18.30;99.90
76211;DHT22;65003;49.518;11.280;2023-06-22T03:25:22;18.40;99.90
76211;DHT22;65003;49.518;11.280;2023-06-22T03:27:49;18.50;99.90
76211;DHT22;65003;49.518;11.280;2023-06-22T03:30:15;18.60;99.80
76211;DHT22;65003;49.518;11.280;2023-06-22T03:32:42;18.70;99.30
76211;DHT22;65003;49.518;11.280;2023-06-22T03:35:09;18.80;99.00
76211;DHT22;65003;49.518;11.280;2023-06-22T03:37:35;18.70;98.70
76211;DHT22;65003;49.518;11.280;2023-06-22T03:40:02;18.70;98.70
76211;DHT22;65003;49.518;11.280;2023-06-22T03:42:33;18.60;98.90
76211;DHT22;65003;49.518;11.280;2023-06-22T03:44:59;18.50;99.10
76211;DHT22;65003;49.518;11.280;2023-06-22T03:47:26;18.50;99.30
76211;DHT22;65003;49.518;11.280;2023-06-22T03:49:53;18.50;99.40
76211;DHT22;65003;49.518;11.280;2023-06-22T03:52:19;18.50;99.30
76211;DHT22;65003;49.518;11.280;2023-06-22T03:54:46;18.60;99.30
76211;DHT22;65003;49.518;11.280;2023-06-22T03:57:12;18.60;99.10
76211;DHT22;65003;49.518;11.280;2023-06-22T03:59:39;18.80;98.70
76211;DHT22;65003;49.518;11.280;2023-06-22T04:02:06;18.80;98.60
76211;DHT22;65003;49.518;11.280;2023-06-22T04:04:32;18.80;98.30
76211;DHT22;65003;49.518;11.280;2023-06-22T04:06:59;18.90;98.30
76211;DHT22;65003;49.518;11.280;2023-06-22T04:09:26;18.90;98.30
76211;DHT22;65003;49.518;11.280;2023-06-22T04:11:52;18.90;98.40
76211;DHT22;65003;49.518;11.280;2023-06-22T04:14:19;18.90;98.40
76211;DHT22;65003;49.518;11.280;2023-06-22T04:16:45;18.80;98.50
76211;DHT22;65003;49.518;11.280;2023-06-22T04:19:12;18.90;98.50
76211;DHT22;65003;49.518;11.280;2023-06-22T04:21:39;18.90;98.30
76211;DHT22;65003;49.518;11.280;2023-06-22T04:24:06;19.00;98.00
76211;DHT22;65003;49.518;11.280;2023-06-22T04:26:32;18.90;97.90
76211;DHT22;65003;49.518;11.280;2023-06-22T04:28:59;18.80;98.30
76211;DHT22;65003;49.518;11.280;2023-06-22T04:31:25;18.90;98.20
76211;DHT22;65003;49.518;11.280;2023-06-22T04:33:52;19.00;98.10
76211;DHT22;65003;49.518;11.280;2023-06-22T04:36:19;19.00;98.20
76211;DHT22;65003;49.518;11.280;2023-06-22T04:38:45;18.90;98.60
76211;DHT22;65003;49.518;11.280;2023-06-22T04:41:12;19.00;98.40
76211;DHT22;65003;49.518;11.280;2023-06-22T04:43:39;19.00;98.40
76211;DHT22;65003;49.518;11.280;2023-06-22T04:46:05;19.00;98.30
76211;DHT22;65003;49.518;11.280;2023-06-22T04:48:32;18.90;98.70
76211;DHT22;65003;49.518;11.280;2023-06-22T04:50:59;18.90;99.00
76211;DHT22;65003;49.518;11.280;2023-06-22T04:53:25;19.00;99.00
76211;DHT22;65003;49.518;11.280;2023-06-22T04:55:52;19.20;98.60
76211;DHT22;65003;49.518;11.280;2023-06-22T04:58:19;19.20;98.50
76211;DHT22;65003;49.518;11.280;2023-06-22T05:00:45;19.10;98.70
76211;DHT22;65003;49.518;11.280;2023-06-22T05:03:12;19.10;98.90
76211;DHT22;65003;49.518;11.280;2023-06-22T05:05:39;19.40;98.70
76211;DHT22;65003;49.518;11.280;2023-06-22T05:08:05;19.50;98.20
76211;DHT22;65003;49.518;11.280;2023-06-22T05:10:33;19.50;98.30
76211;DHT22;65003;49.518;11.280;2023-06-22T05:13:00;19.50;98.50
76211;DHT22;65003;49.518;11.280;2023-06-22T05:15:26;19.50;98.50
76211;DHT22;65003;49.518;11.280;2023-06-22T05:17:53;19.70;98.50
76211;DHT22;65003;49.518;11.280;2023-06-22T05:20:20;19.80;98.00
76211;DHT22;65003;49.518;11.280;2023-06-22T05:22:46;20.00;97.70
76211;DHT22;65003;49.518;11.280;2023-06-22T05:25:13;20.20;97.50
76211;DHT22;65003;49.518;11.280;2023-06-22T05:27:39;20.40;96.90
76211;DHT22;65003;49.518;11.280;2023-06-22T05:30:06;20.60;96.30
76211;DHT22;65003;49.518;11.280;2023-06-22T05:32:34;20.90;95.70
76211;DHT22;65003;49.518;11.280;2023-06-22T05:35:01;21.10;95.00
76211;DHT22;65003;49.518;11.280;2023-06-22T05:37:28;21.30;95.00
76211;DHT22;65003;49.518;11.280;2023-06-22T05:39:54;21.50;94.20
76211;DHT22;65003;49.518;11.280;2023-06-22T05:42:21;21.60;94.10
76211;DHT22;65003;49.518;11.280;2023-06-22T05:44:47;21.80;93.80
76211;DHT22;65003;49.518;11.280;2023-06-22T05:47:14;22.00;93.40
76211;DHT22;65003;49.518;11.280;2023-06-22T05:49:40;22.20;92.90
76211;DHT22;65003;49.518;11.280;2023-06-22T05:52:07;22.50;92.20
76211;DHT22;65003;49.518;11.280;2023-06-22T05:54:33;22.70;91.50
76211;DHT22;65003;49.518;11.280;2023-06-22T05:57:00;22.80;91.00
76211;DHT22;65003;49.518;11.280;2023-06-22T05:59:27;22.70;91.10
76211;DHT22;65003;49.518;11.280;2023-06-22T06:01:54;22.70;91.00
76211;DHT22;65003;49.518;11.280;2023-06-22T06:04:21;23.00;90.80
76211;DHT22;65003;49.518;11.280;2023-06-22T06:06:48;23.20;90.00
76211;DHT22;65003;49.518;11.280;2023-06-22T06:09:14;23.40;89.30
76211;DHT22;65003;49.518;11.280;2023-06-22T06:11:41;23.50;87.90
76211;DHT22;65003;49.518;11.280;2023-06-22T06:14:07;23.70;88.30
76211;DHT22;65003;49.518;11.280;2023-06-22T06:16:34;23.80;87.60
76211;DHT22;65003;49.518;11.280;2023-06-22T06:19:01;24.00;86.50
76211;DHT22;65003;49.518;11.280;2023-06-22T06:21:27;24.20;86.00
76211;DHT22;65003;49.518;11.280;2023-06-22T06:23:54;24.30;85.80
76211;DHT22;65003;49.518;11.280;2023-06-22T06:26:20;24.60;85.20
76211;DHT22;65003;49.518;11.280;2023-06-22T06:28:47;24.90;83.20
76211;DHT22;65003;49.518;11.280;2023-06-22T06:31:14;25.30;81.40
76211;DHT22;65003;49.518;11.280;2023-06-22T06:33:41;25.40;80.60
76211;DHT22;65003;49.518;11.280;2023-06-22T06:36:07;25.80;80.10
76211;DHT22;65003;49.518;11.280;2023-06-22T06:38:34;26.40;78.60
76211;DHT22;65003;49.518;11.280;2023-06-22T06:41:01;27.00;75.90
76211;DHT22;65003;49.518;11.280;2023-06-22T06:43:27;27.50;72.90
76211;DHT22;65003;49.518;11.280;2023-06-22T06:45:54;27.60;72.70
76211;DHT22;65003;49.518;11.280;2023-06-22T06:48:20;28.10;71.30
76211;DHT22;65003;49.518;11.280;2023-06-22T06:50:47;27.90;70.20
76211;DHT22;65003;49.518;11.280;2023-06-22T06:53:14;28.10;70.30
76211;DHT22;65003;49.518;11.280;2023-06-22T06:55:40;28.40;69.30
76211;DHT22;65003;49.518;11.280;2023-06-22T06:58:07;28.90;68.80
76211;DHT22;65003;49.518;11.280;2023-06-22T07:00:33;29.10;66.20
76211;DHT22;65003;49.518;11.280;2023-06-22T07:03:01;29.40;65.00
76211;DHT22;65003;49.518;11.280;2023-06-22T07:05:27;29.70;64.40
76211;DHT22;65003;49.518;11.280;2023-06-22T07:07:54;29.80;63.40
76211;DHT22;65003;49.518;11.280;2023-06-22T07:10:21;30.30;62.60
76211;DHT22;65003;49.518;11.280;2023-06-22T07:12:47;30.50;61.00
76211;DHT22;65003;49.518;11.280;2023-06-22T07:15:14;30.60;60.50
76211;DHT22;65003;49.518;11.280;2023-06-22T07:17:40;30.60;60.20
76211;DHT22;65003;49.518;11.280;2023-06-22T07:20:07;30.50;59.80
76211;DHT22;65003;49.518;11.280;2023-06-22T07:22:35;30.20;61.00
76211;DHT22;65003;49.518;11.280;2023-06-22T07:25:02;30.50;60.20
76211;DHT22;65003;49.518;11.280;2023-06-22T07:27:28;30.60;60.70
76211;DHT22;65003;49.518;11.280;2023-06-22T07:29:55;30.70;58.90
76211;DHT22;65003;49.518;11.280;2023-06-22T07:32:21;31.20;58.20
76211;DHT22;65003;49.518;11.280;2023-06-22T07:34:48;31.60;56.30
76211;DHT22;65003;49.518;11.280;2023-06-22T07:37:14;31.90;59.70
76211;DHT22;65003;49.518;11.280;2023-06-22T07:39:41;31.70;55.20
76211;DHT22;65003;49.518;11.280;2023-06-22T07:42:08;31.70;54.80
76211;DHT22;65003;49.518;11.280;2023-06-22T07:44:34;31.90;55.00
76211;DHT22;65003;49.518;11.280;2023-06-22T07:47:01;32.20;54.00
76211;DHT22;65003;49.518;11.280;2023-06-22T07:51:54;32.20;93.00
76211;DHT22;65003;49.518;11.280;2023-06-22T07:54:21;32.60;51.80
76211;DHT22;65003;49.518;11.280;2023-06-22T07:56:47;32.70;51.70
76211;DHT22;65003;49.518;11.280;2023-06-22T07:59:14;33.00;51.20
76211;DHT22;65003;49.518;11.280;2023-06-22T08:01:40;33.10;50.50
76211;DHT22;65003;49.518;11.280;2023-06-22T08:04:07;33.60;49.00
76211;DHT22;65003;49.518;11.280;2023-06-22T08:06:34;34.00;48.70
76211;DHT22;65003;49.518;11.280;2023-06-22T08:09:00;34.10;48.70
76211;DHT22;65003;49.518;11.280;2023-06-22T08:11:27;34.60;47.60
76211;DHT22;65003;49.518;11.280;2023-06-22T08:13:53;34.50;46.70
76211;DHT22;65003;49.518;11.280;2023-06-22T08:16:20;34.00;48.20
76211;DHT22;65003;49.518;11.280;2023-06-22T08:18:47;33.90;48.20
76211;DHT22;65003;49.518;11.280;2023-06-22T08:21:13;34.30;47.20
76211;DHT22;65003;49.518;11.280;2023-06-22T08:26:06;34.70;45.70
76211;DHT22;65003;49.518;11.280;2023-06-22T08:28:33;34.30;47.20
76211;DHT22;65003;49.518;11.280;2023-06-22T08:31:00;34.20;47.60
76211;DHT22;65003;49.518;11.280;2023-06-22T08:33:26;34.00;47.20
76211;DHT22;65003;49.518;11.280;2023-06-22T08:35:53;34.20;47.10
76211;DHT22;65003;49.518;11.280;2023-06-22T08:38:19;34.60;46.20
76211;DHT22;65003;49.518;11.280;2023-06-22T08:40:46;34.30;46.70
76211;DHT22;65003;49.518;11.280;2023-06-22T08:43:13;34.50;46.60
76211;DHT22;65003;49.518;11.280;2023-06-22T08:45:39;35.20;45.30
76211;DHT22;65003;49.518;11.280;2023-06-22T08:48:06;35.40;45.80
76211;DHT22;65003;49.518;11.280;2023-06-22T08:50:33;35.30;43.90
76211;DHT22;65003;49.518;11.280;2023-06-22T08:53:00;34.90;44.90
76211;DHT22;65003;49.518;11.280;2023-06-22T08:55:27;35.10;45.10
76211;DHT22;65003;49.518;11.280;2023-06-22T08:57:53;35.30;44.60
76211;DHT22;65003;49.518;11.280;2023-06-22T09:00:20;35.40;44.00
76211;DHT22;65003;49.518;11.280;2023-06-22T09:02:47;35.10;44.80
76211;DHT22;65003;49.518;11.280;2023-06-22T09:05:13;35.20;44.50
76211;DHT22;65003;49.518;11.280;2023-06-22T09:07:40;34.60;44.60
76211;DHT22;65003;49.518;11.280;2023-06-22T09:10:07;34.30;45.70
76211;DHT22;65003;49.518;11.280;2023-06-22T09:12:33;34.20;45.70
76211;DHT22;65003;49.518;11.280;2023-06-22T09:15:00;34.50;46.70
76211;DHT22;65003;49.518;11.280;2023-06-22T09:17:27;34.80;44.60
76211;DHT22;65003;49.518;11.280;2023-06-22T09:19:53;34.90;44.90
76211;DHT22;65003;49.518;11.280;2023-06-22T09:22:20;34.70;43.70
76211;DHT22;65003;49.518;11.280;2023-06-22T09:24:46;34.40;44.80
76211;DHT22;65003;49.518;11.280;2023-06-22T09:27:13;34.50;44.70
76211;DHT22;65003;49.518;11.280;2023-06-22T09:29:40;34.80;44.40
76211;DHT22;65003;49.518;11.280;2023-06-22T09:32:07;34.70;44.40
76211;DHT22;65003;49.518;11.280;2023-06-22T09:34:33;34.90;44.50
76211;DHT22;65003;49.518;11.280;2023-06-22T09:37:00;34.90;43.70
76211;DHT22;65003;49.518;11.280;2023-06-22T09:39:26;35.30;43.60
76211;DHT22;65003;49.518;11.280;2023-06-22T09:41:53;35.20;44.00
76211;DHT22;65003;49.518;11.280;2023-06-22T09:44:20;35.10;43.30
76211;DHT22;65003;49.518;11.280;2023-06-22T09:46:46;34.80;44.10
76211;DHT22;65003;49.518;11.280;2023-06-22T09:49:13;34.60;44.20
76211;DHT22;65003;49.518;11.280;2023-06-22T09:51:40;34.50;44.10
76211;DHT22;65003;49.518;11.280;2023-06-22T09:54:06;34.40;44.10
76211;DHT22;65003;49.518;11.280;2023-06-22T09:56:33;34.30;44.50
76211;DHT22;65003;49.518;11.280;2023-06-22T09:58:59;34.20;44.60
76211;DHT22;65003;49.518;11.280;2023-06-22T10:01:26;34.20;45.00
76211;DHT22;65003;49.518;11.280;2023-06-22T10:03:53;34.60;44.90
76211;DHT22;65003;49.518;11.280;2023-06-22T10:06:21;34.80;43.50
76211;DHT22;65003;49.518;11.280;2023-06-22T10:08:47;34.30;43.50
76211;DHT22;65003;49.518;11.280;2023-06-22T10:11:15;34.10;43.80
76211;DHT22;65003;49.518;11.280;2023-06-22T10:13:42;34.00;44.10
76211;DHT22;65003;49.518;11.280;2023-06-22T10:16:09;34.10;44.60
76211;DHT22;65003;49.518;11.280;2023-06-22T10:18:35;34.30;43.20
76211;DHT22;65003;49.518;11.280;2023-06-22T10:21:02;34.40;42.80
76211;DHT22;65003;49.518;11.280;2023-06-22T10:23:29;34.40;44.40
76211;DHT22;65003;49.518;11.280;2023-06-22T10:25:55;34.30;43.90
76211;DHT22;65003;49.518;11.280;2023-06-22T10:28:22;34.50;43.00
76211;DHT22;65003;49.518;11.280;2023-06-22T10:30:48;34.40;43.80
76211;DHT22;65003;49.518;11.280;2023-06-22T10:33:16;34.50;41.60
76211;DHT22;65003;49.518;11.280;2023-06-22T10:35:43;34.30;42.10
76211;DHT22;65003;49.518;11.280;2023-06-22T10:38:10;34.20;42.60
76211;DHT22;65003;49.518;11.280;2023-06-22T10:40:36;34.20;42.60
76211;DHT22;65003;49.518;11.280;2023-06-22T10:43:03;34.10;41.80
76211;DHT22;65003;49.518;11.280;2023-06-22T10:45:29;34.00;42.70
76211;DHT22;65003;49.518;11.280;2023-06-22T10:47:56;34.20;42.40
76211;DHT22;65003;49.518;11.280;2023-06-22T10:50:24;33.90;42.60
76211;DHT22;65003;49.518;11.280;2023-06-22T10:52:50;34.00;43.10
76211;DHT22;65003;49.518;11.280;2023-06-22T10:55:17;34.20;42.80
76211;DHT22;65003;49.518;11.280;2023-06-22T10:57:43;34.30;42.60
76211;DHT22;65003;49.518;11.280;2023-06-22T11:00:11;34.60;41.90
76211;DHT22;65003;49.518;11.280;2023-06-22T11:02:38;34.70;42.10
76211;DHT22;65003;49.518;11.280;2023-06-22T11:05:05;34.80;41.40
76211;DHT22;65003;49.518;11.280;2023-06-22T11:07:31;35.20;42.40
76211;DHT22;65003;49.518;11.280;2023-06-22T11:09:58;35.50;41.40
76211;DHT22;65003;49.518;11.280;2023-06-22T11:12:25;35.60;41.20
76211;DHT22;65003;49.518;11.280;2023-06-22T11:14:51;35.60;39.90
76211;DHT22;65003;49.518;11.280;2023-06-22T11:17:18;35.70;40.30
76211;DHT22;65003;49.518;11.280;2023-06-22T11:19:44;35.60;40.50
76211;DHT22;65003;49.518;11.280;2023-06-22T11:22:11;35.70;40.00
76211;DHT22;65003;49.518;11.280;2023-06-22T11:24:38;35.70;40.80
76211;DHT22;65003;49.518;11.280;2023-06-22T11:27:04;35.80;40.60
76211;DHT22;65003;49.518;11.280;2023-06-22T11:29:31;35.50;39.80
76211;DHT22;65003;49.518;11.280;2023-06-22T11:31:58;35.20;40.50
76211;DHT22;65003;49.518;11.280;2023-06-22T11:34:24;35.20;41.70
76211;DHT22;65003;49.518;11.280;2023-06-22T11:36:51;35.20;40.40
76211;DHT22;65003;49.518;11.280;2023-06-22T11:39:17;35.20;41.10
76211;DHT22;65003;49.518;11.280;2023-06-22T11:41:44;35.40;41.00
76211;DHT22;65003;49.518;11.280;2023-06-22T11:44:11;35.10;40.90
76211;DHT22;65003;49.518;11.280;2023-06-22T11:46:37;34.90;41.10
76211;DHT22;65003;49.518;11.280;2023-06-22T11:49:10;34.90;40.70
76211;DHT22;65003;49.518;11.280;2023-06-22T11:51:37;34.80;41.10
76211;DHT22;65003;49.518;11.280;2023-06-22T11:54:03;34.70;41.30
76211;DHT22;65003;49.518;11.280;2023-06-22T11:56:30;34.40;41.60
76211;DHT22;65003;49.518;11.280;2023-06-22T11:58:56;34.30;42.20
76211;DHT22;65003;49.518;11.280;2023-06-22T12:01:23;34.20;43.10
76211;DHT22;65003;49.518;11.280;2023-06-22T12:03:50;34.20;41.90
76211;DHT22;65003;49.518;11.280;2023-06-22T12:06:17;34.20;43.00
76211;DHT22;65003;49.518;11.280;2023-06-22T12:08:43;34.40;43.00
76211;DHT22;65003;49.518;11.280;2023-06-22T12:11:10;34.60;41.70
76211;DHT22;65003;49.518;11.280;2023-06-22T12:13:36;34.70;41.20
76211;DHT22;65003;49.518;11.280;2023-06-22T12:16:04;34.50;40.90
76211;DHT22;65003;49.518;11.280;2023-06-22T12:18:31;34.40;41.30
76211;DHT22;65003;49.518;11.280;2023-06-22T12:20:57;34.40;42.10
76211;DHT22;65003;49.518;11.280;2023-06-22T12:23:24;34.40;41.70
76211;DHT22;65003;49.518;11.280;2023-06-22T12:25:51;34.50;42.50
76211;DHT22;65003;49.518;11.280;2023-06-22T12:28:19;34.70;43.30
76211;DHT22;65003;49.518;11.280;2023-06-22T12:30:46;34.80;42.20
76211;DHT22;65003;49.518;11.280;2023-06-22T12:33:13;34.80;41.50
76211;DHT22;65003;49.518;11.280;2023-06-22T12:35:40;34.80;41.50
76211;DHT22;65003;49.518;11.280;2023-06-22T12:38:07;34.70;41.50
76211;DHT22;65003;49.518;11.280;2023-06-22T12:40:33;34.90;41.50
76211;DHT22;65003;49.518;11.280;2023-06-22T12:43:00;35.00;40.60
76211;DHT22;65003;49.518;11.280;2023-06-22T12:45:26;34.90;39.80
76211;DHT22;65003;49.518;11.280;2023-06-22T12:47:53;34.90;40.70
76211;DHT22;65003;49.518;11.280;2023-06-22T12:50:20;34.90;41.20
76211;DHT22;65003;49.518;11.280;2023-06-22T12:52:47;34.90;41.00
76211;DHT22;65003;49.518;11.280;2023-06-22T12:55:13;35.00;40.60
76211;DHT22;65003;49.518;11.280;2023-06-22T12:57:40;35.00;40.50
76211;DHT22;65003;49.518;11.280;2023-06-22T13:00:08;35.00;41.30
76211;DHT22;65003;49.518;11.280;2023-06-22T13:02:38;35.00;40.50
76211;DHT22;65003;49.518;11.280;2023-06-22T13:05:04;34.90;41.00
76211;DHT22;65003;49.518;11.280;2023-06-22T13:07:31;34.80;40.70
76211;DHT22;65003;49.518;11.280;2023-06-22T13:09:58;34.80;41.00
76211;DHT22;65003;49.518;11.280;2023-06-22T13:12:24;34.80;41.40
76211;DHT22;65003;49.518;11.280;2023-06-22T13:14:51;34.70;40.90
76211;DHT22;65003;49.518;11.280;2023-06-22T13:17:18;34.80;41.70
76211;DHT22;65003;49.518;11.280;2023-06-22T13:19:44;34.70;41.40
76211;DHT22;65003;49.518;11.280;2023-06-22T13:24:50;34.20;42.30
76211;DHT22;65003;49.518;11.280;2023-06-22T13:27:17;34.10;42.50
76211;DHT22;65003;49.518;11.280;2023-06-22T13:29:43;33.80;42.80
76211;DHT22;65003;49.518;11.280;2023-06-22T13:32:10;33.80;42.60
76211;DHT22;65003;49.518;11.280;2023-06-22T13:34:36;33.80;41.80
76211;DHT22;65003;49.518;11.280;2023-06-22T13:37:03;33.90;42.30
76211;DHT22;65003;49.518;11.280;2023-06-22T13:39:30;34.00;41.90
76211;DHT22;65003;49.518;11.280;2023-06-22T13:41:57;34.10;41.50
76211;DHT22;65003;49.518;11.280;2023-06-22T13:44:23;34.40;41.10
76211;DHT22;65003;49.518;11.280;2023-06-22T13:46:50;34.50;42.30
76211;DHT22;65003;49.518;11.280;2023-06-22T13:49:17;34.60;41.10
76211;DHT22;65003;49.518;11.280;2023-06-22T13:51:45;34.70;40.90
76211;DHT22;65003;49.518;11.280;2023-06-22T13:54:12;34.70;41.30
76211;DHT22;65003;49.518;11.280;2023-06-22T13:56:38;34.80;40.10
76211;DHT22;65003;49.518;11.280;2023-06-22T13:59:05;34.80;39.90
76211;DHT22;65003;49.518;11.280;2023-06-22T14:01:32;34.70;39.80
76211;DHT22;65003;49.518;11.280;2023-06-22T14:03:59;34.60;40.10
76211;DHT22;65003;49.518;11.280;2023-06-22T14:06:25;34.70;40.50
76211;DHT22;65003;49.518;11.280;2023-06-22T14:08:52;34.90;41.80
76211;DHT22;65003;49.518;11.280;2023-06-22T14:11:18;35.10;42.10
76211;DHT22;65003;49.518;11.280;2023-06-22T14:13:45;35.20;41.20
76211;DHT22;65003;49.518;11.280;2023-06-22T14:16:12;35.40;39.80
76211;DHT22;65003;49.518;11.280;2023-06-22T14:18:38;35.50;39.50
76211;DHT22;65003;49.518;11.280;2023-06-22T14:21:05;35.30;39.00
76211;DHT22;65003;49.518;11.280;2023-06-22T14:23:31;35.20;39.40
76211;DHT22;65003;49.518;11.280;2023-06-22T14:25:58;35.10;39.80
76211;DHT22;65003;49.518;11.280;2023-06-22T14:28:25;35.00;40.10
76211;DHT22;65003;49.518;11.280;2023-06-22T14:30:52;35.00;41.30
76211;DHT22;65003;49.518;11.280;2023-06-22T14:33:18;35.00;41.20
76211;DHT22;65003;49.518;11.280;2023-06-22T14:35:45;35.00;40.70
76211;DHT22;65003;49.518;11.280;2023-06-22T14:38:11;35.10;40.90
76211;DHT22;65003;49.518;11.280;2023-06-22T14:40:38;35.00;39.30
76211;DHT22;65003;49.518;11.280;2023-06-22T14:43:05;34.90;39.80
76211;DHT22;65003;49.518;11.280;2023-06-22T14:45:31;34.90;40.30
76211;DHT22;65003;49.518;11.280;2023-06-22T14:47:58;34.90;40.10
76211;DHT22;65003;49.518;11.280;2023-06-22T14:50:26;35.00;40.50
76211;DHT22;65003;49.518;11.280;2023-06-22T14:52:52;34.90;40.10
76211;DHT22;65003;49.518;11.280;2023-06-22T14:55:19;34.90;39.40
76211;DHT22;65003;49.518;11.280;2023-06-22T14:57:46;34.90;39.30
76211;DHT22;65003;49.518;11.280;2023-06-22T15:00:13;34.90;40.00
76211;DHT22;65003;49.518;11.280;2023-06-22T15:02:40;34.90;40.20
76211;DHT22;65003;49.518;11.280;2023-06-22T15:05:06;34.80;40.80
76211;DHT22;65003;49.518;11.280;2023-06-22T15:07:33;34.80;40.80
76211;DHT22;65003;49.518;11.280;2023-06-22T15:09:59;34.90;41.20
76211;DHT22;65003;49.518;11.280;2023-06-22T15:12:27;34.90;39.60
76211;DHT22;65003;49.518;11.280;2023-06-22T15:14:53;34.70;39.40
76211;DHT22;65003;49.518;11.280;2023-06-22T15:17:20;34.60;40.20
76211;DHT22;65003;49.518;11.280;2023-06-22T15:19:47;34.50;40.80
76211;DHT22;65003;49.518;11.280;2023-06-22T15:22:14;34.50;40.50